sensor_id;sensor_type;location;lat;lon;timestamp;pressure;altitude;pressure_sealevel;temperature;humidity
55914;BME280;58179;48.776;9.124;2023-01-26T00:00:55;97883.88;;;0.27;100.00
55914;BME280;58179;48.776;9.124;2023-01-26T00:03:22;97873.78;;;0.24;100.00
55914;BME280;58179;48.776;9.124;2023-01-26T00:05:47;97873.19;;;0.22;100.00
55914;BME280;58179;48.776;9.124;2023-01-26T00:08:14;97873.19;;;0.22;100.00
55914;BME280;58179;48.776;9.124;2023-01-26T00:10:40;97868.16;;;0.20;100.00
55914;BME280;58179;48.776;9.124;2023-01-26T00:13:16;97865.72;;;0.19;100.00
55914;BME280;58179;48.776;9.124;2023-01-26T00:15:46;97860.34;;;0.20;100.00
55914;BME280;58179;48.776;9.124;2023-01-26T00:18:13;97848.34;;;0.11;100.00
55914;BME280;58179;48.776;9.124;2023-01-26T00:20:39;97842.66;;;0.08;100.00
55914;BME280;58179;48.776;9.124;2023-01-26T00:23:05;97843.69;;;0.07;100.00
55914;BME280;58179;48.776;9.124;2023-01-26T00:25:31;97833.88;;;0.09;100.00
55914;BME280;58179;48.776;9.124;2023-01-26T00:27:57;97828.06;;;0.07;100.00
55914;BME280;58179;48.776;9.124;2023-01-26T00:30:23;97830.19;;;0.03;100.00
55914;BME280;58179;48.776;9.124;2023-01-26T00:32:50;97826.94;;;0.01;100.00
55914;BME280;58179;48.776;9.124;2023-01-26T00:35:16;97826.94;;;0.01;100.00
55914;BME280;58179;48.776;9.124;2023-01-26T00:37:42;97824.81;;;0.05;100.00
55914;BME280;58179;48.776;9.124;2023-01-26T00:40:10;97817.94;;;-0.11;100.00
55914;BME280;58179;48.776;9.124;2023-01-26T00:42:36;97816.06;;;-0.25;100.00
55914;BME280;58179;48.776;9.124;2023-01-26T00:45:03;97809.25;;;-0.26;100.00
55914;BME280;58179;48.776;9.124;2023-01-26T00:47:29;97808.91;;;-0.23;100.00
55914;BME280;58179;48.776;9.124;2023-01-26T00:49:56;97816.19;;;-0.19;100.00
55914;BME280;58179;48.776;9.124;2023-01-26T00:52:22;97804.66;;;-0.16;100.00
55914;BME280;58179;48.776;9.124;2023-01-26T00:54:48;97803.13;;;-0.11;100.00
55914;BME280;58179;48.776;9.124;2023-01-26T00:57:14;97807.19;;;-0.08;100.00
55914;BME280;58179;48.776;9.124;2023-01-26T00:59:40;97799.03;;;-0.05;100.00
55914;BME280;58179;48.776;9.124;2023-01-26T01:02:05;97800.66;;;-0.04;100.00
55914;BME280;58179;48.776;9.124;2023-01-26T01:04:31;97793.81;;;-0.05;100.00
55914;BME280;58179;48.776;9.124;2023-01-26T01:06:59;97790.06;;;-0.03;100.00
55914;BME280;58179;48.776;9.124;2023-01-26T01:09:25;97795.72;;;0.01;100.00
55914;BME280;58179;48.776;9.124;2023-01-26T01:11:51;97794.91;;;0.00;100.00
55914;BME280;58179;48.776;9.124;2023-01-26T01:14:17;97796.53;;;0.02;100.00
55914;BME280;58179;48.776;9.124;2023-01-26T01:16:43;97800.09;;;0.00;100.00
55914;BME280;58179;48.776;9.124;2023-01-26T01:19:13;97802.53;;;0.02;100.00
55914;BME280;58179;48.776;9.124;2023-01-26T01:21:40;97798.31;;;0.01;100.00
55914;BME280;58179;48.776;9.124;2023-01-26T01:24:07;97795.38;;;0.04;100.00
55914;BME280;58179;48.776;9.124;2023-01-26T01:26:33;97797.81;;;0.06;100.00
55914;BME280;58179;48.776;9.124;2023-01-26T01:29:00;97790.81;;;0.06;100.00
55914;BME280;58179;48.776;9.124;2023-01-26T01:31:25;97798.63;;;0.06;100.00
55914;BME280;58179;48.776;9.124;2023-01-26T01:33:54;97787.25;;;0.07;100.00
55914;BME280;58179;48.776;9.124;2023-01-26T01:36:20;97795.81;;;0.08;100.00
55914;BME280;58179;48.776;9.124;2023-01-26T01:38:46;97786.22;;;0.08;100.00
55914;BME280;58179;48.776;9.124;2023-01-26T01:41:17;97775.19;;;0.06;100.00
55914;BME280;58179;48.776;9.124;2023-01-26T01:43:44;97786.44;;;0.07;100.00
55914;BME280;58179;48.776;9.124;2023-01-26T01:46:29;97788.22;;;0.06;100.00
55914;BME280;58179;48.776;9.124;2023-01-26T01:48:59;97783.63;;;0.08;100.00
55914;BME280;58179;48.776;9.124;2023-01-26T01:51:32;97769.63;;;0.09;100.00
55914;BME280;58179;48.776;9.124;2023-01-26T01:54:09;97775.81;;;0.08;100.00
55914;BME280;58179;48.776;9.124;2023-01-26T01:56:41;97777.59;;;0.08;100.00
55914;BME280;58179;48.776;9.124;2023-01-26T01:59:09;97777.81;;;0.06;100.00
55914;BME280;58179;48.776;9.124;2023-01-26T02:01:36;97772.59;;;0.06;100.00
55914;BME280;58179;48.776;9.124;2023-01-26T02:04:04;97769.19;;;0.06;100.00
55914;BME280;58179;48.776;9.124;2023-01-26T02:06:36;97772.59;;;0.06;100.00
55914;BME280;58179;48.776;9.124;2023-01-26T02:09:05;97767.56;;;0.05;100.00
55914;BME280;58179;48.776;9.124;2023-01-26T02:11:35;97760.75;;;0.04;100.00
55914;BME280;58179;48.776;9.124;2023-01-26T02:14:07;97752.28;;;0.02;100.00
55914;BME280;58179;48.776;9.124;2023-01-26T02:16:35;97758.31;;;0.02;100.00
55914;BME280;58179;48.776;9.124;2023-01-26T02:19:01;97758.47;;;0.00;100.00
55914;BME280;58179;48.776;9.124;2023-01-26T02:21:27;97752.28;;;0.02;100.00
55914;BME280;58179;48.776;9.124;2023-01-26T02:24:06;97754.72;;;0.03;100.00
55914;BME280;58179;48.776;9.124;2023-01-26T02:26:38;97752.94;;;0.04;100.00
55914;BME280;58179;48.776;9.124;2023-01-26T02:29:09;97746.09;;;0.03;100.00
55914;BME280;58179;48.776;9.124;2023-01-26T02:31:36;97743.50;;;0.03;100.00
55914;BME280;58179;48.776;9.124;2023-01-26T02:34:02;97740.91;;;0.03;100.00
55914;BME280;58179;48.776;9.124;2023-01-26T02:36:31;97744.31;;;0.03;100.00
55914;BME280;58179;48.776;9.124;2023-01-26T02:39:16;97748.53;;;0.04;100.00
55914;BME280;58179;48.776;9.124;2023-01-26T02:41:47;97744.16;;;0.05;100.00
55914;BME280;58179;48.776;9.124;2023-01-26T02:44:33;97739.75;;;0.05;100.00
55914;BME280;58179;48.776;9.124;2023-01-26T02:46:59;97737.16;;;0.05;100.00
55914;BME280;58179;48.776;9.124;2023-01-26T02:49:24;97743.97;;;0.06;100.00
55914;BME280;58179;48.776;9.124;2023-01-26T02:52:09;97736.16;;;0.06;100.00
55914;BME280;58179;48.776;9.124;2023-01-26T02:54:35;97731.78;;;0.07;100.00
55914;BME280;58179;48.776;9.124;2023-01-26T02:57:20;97733.56;;;0.06;100.00
55914;BME280;58179;48.776;9.124;2023-01-26T02:59:46;97730.16;;;0.06;100.00
55914;BME280;58179;48.776;9.124;2023-01-26T03:02:12;97728.34;;;0.06;100.00
55914;BME280;58179;48.776;9.124;2023-01-26T03:04:38;97729.69;;;0.02;100.00
55914;BME280;58179;48.776;9.124;2023-01-26T03:07:04;97722.84;;;0.01;100.00
55914;BME280;58179;48.776;9.124;2023-01-26T03:09:30;97728.06;;;0.01;100.00
55914;BME280;58179;48.776;9.124;2023-01-26T03:11:56;97723.88;;;0.00;100.00
55914;BME280;58179;48.776;9.124;2023-01-26T03:14:23;97730.66;;;0.01;100.00
55914;BME280;58179;48.776;9.124;2023-01-26T03:16:49;97723.88;;;0.00;100.00
55914;BME280;58179;48.776;9.124;2023-01-26T03:19:15;97718.03;;;-0.02;100.00
55914;BME280;58179;48.776;9.124;2023-01-26T03:22:00;97719.63;;;-0.01;100.00
55914;BME280;58179;48.776;9.124;2023-01-26T03:24:44;97712.81;;;-0.02;100.00
55914;BME280;58179;48.776;9.124;2023-01-26T03:27:32;97708.59;;;-0.03;100.00
55914;BME280;58179;48.776;9.124;2023-01-26T03:30:00;97701.59;;;-0.03;100.00
55914;BME280;58179;48.776;9.124;2023-01-26T03:32:26;97696.41;;;-0.03;100.00
55914;BME280;58179;48.776;9.124;2023-01-26T03:34:51;97699.00;;;-0.03;100.00
55914;BME280;58179;48.776;9.124;2023-01-26T03:37:17;97689.56;;;-0.04;100.00
55914;BME280;58179;48.776;9.124;2023-01-26T03:39:48;97694.94;;;-0.05;100.00
55914;BME280;58179;48.776;9.124;2023-01-26T03:42:33;97691.19;;;-0.03;100.00
55914;BME280;58179;48.776;9.124;2023-01-26T03:45:19;97682.75;;;-0.05;100.00
55914;BME280;58179;48.776;9.124;2023-01-26T03:48:10;97687.13;;;-0.05;100.00
55914;BME280;58179;48.776;9.124;2023-01-26T03:50:55;97687.59;;;-0.02;100.00
55914;BME280;58179;48.776;9.124;2023-01-26T03:53:39;97685.50;;;-0.06;100.00
55914;BME280;58179;48.776;9.124;2023-01-26T03:56:24;97686.50;;;-0.07;100.00
55914;BME280;58179;48.776;9.124;2023-01-26T03:58:52;97690.91;;;-0.08;100.00
55914;BME280;58179;48.776;9.124;2023-01-26T04:01:21;97688.31;;;-0.08;100.00
55914;BME280;58179;48.776;9.124;2023-01-26T04:03:51;97693.97;;;-0.04;100.00
55914;BME280;58179;48.776;9.124;2023-01-26T04:06:40;97689.91;;;-0.07;100.00
55914;BME280;58179;48.776;9.124;2023-01-26T04:09:24;97693.53;;;-0.08;100.00
55914;BME280;58179;48.776;9.124;2023-01-26T04:11:50;97701.13;;;-0.06;100.00
55914;BME280;58179;48.776;9.124;2023-01-26T04:14:16;97693.78;;;-0.03;100.00
55914;BME280;58179;48.776;9.124;2023-01-26T04:17:03;97692.97;;;-0.03;100.00
55914;BME280;58179;48.776;9.124;2023-01-26T04:19:48;97690.91;;;-0.08;100.00
55914;BME280;58179;48.776;9.124;2023-01-26T04:22:35;97690.28;;;-0.10;100.00
55914;BME280;58179;48.776;9.124;2023-01-26T04:25:06;97690.44;;;-0.11;100.00
55914;BME280;58179;48.776;9.124;2023-01-26T04:27:32;97694.84;;;-0.12;100.00
55914;BME280;58179;48.776;9.124;2023-01-26T04:29:59;97704.09;;;-0.09;100.00
55914;BME280;58179;48.776;9.124;2023-01-26T04:32:26;97698.09;;;-0.10;100.00
55914;BME280;58179;48.776;9.124;2023-01-26T04:34:52;97695.66;;;-0.11;100.00
55914;BME280;58179;48.776;9.124;2023-01-26T04:37:18;97693.03;;;-0.11;100.00
55914;BME280;58179;48.776;9.124;2023-01-26T04:39:44;97682.00;;;-0.13;100.00
55914;BME280;58179;48.776;9.124;2023-01-26T04:42:10;97676.97;;;-0.15;100.00
55914;BME280;58179;48.776;9.124;2023-01-26T04:44:36;97679.56;;;-0.15;100.00
55914;BME280;58179;48.776;9.124;2023-01-26T04:47:02;97676.19;;;-0.15;100.00
55914;BME280;58179;48.776;9.124;2023-01-26T04:49:29;97674.72;;;-0.18;100.00
55914;BME280;58179;48.776;9.124;2023-01-26T04:51:55;97674.72;;;-0.18;100.00
55914;BME280;58179;48.776;9.124;2023-01-26T04:54:21;97666.94;;;-0.18;100.00
55914;BME280;58179;48.776;9.124;2023-01-26T04:56:47;97669.38;;;-0.16;100.00
55914;BME280;58179;48.776;9.124;2023-01-26T04:59:33;97670.97;;;-0.15;100.00
55914;BME280;58179;48.776;9.124;2023-01-26T05:01:59;97678.78;;;-0.15;100.00
55914;BME280;58179;48.776;9.124;2023-01-26T05:04:25;97672.78;;;-0.16;100.00
55914;BME280;58179;48.776;9.124;2023-01-26T05:06:53;97669.53;;;-0.18;100.00
55914;BME280;58179;48.776;9.124;2023-01-26T05:09:18;97665.78;;;-0.15;100.00
55914;BME280;58179;48.776;9.124;2023-01-26T05:11:44;97671.97;;;-0.16;100.00
55914;BME280;58179;48.776;9.124;2023-01-26T05:14:12;97674.38;;;-0.15;100.00
55914;BME280;58179;48.776;9.124;2023-01-26T05:16:38;97665.31;;;-0.19;100.00
55914;BME280;58179;48.776;9.124;2023-01-26T05:19:04;97676.25;;;-0.23;100.00
55914;BME280;58179;48.776;9.124;2023-01-26T05:21:30;97676.75;;;-0.28;100.00
55914;BME280;58179;48.776;9.124;2023-01-26T05:23:57;97670.75;;;-0.28;100.00
55914;BME280;58179;48.776;9.124;2023-01-26T05:26:23;97673.88;;;-0.33;100.00
55914;BME280;58179;48.776;9.124;2023-01-26T05:28:49;97677.47;;;-0.34;100.00
55914;BME280;58179;48.776;9.124;2023-01-26T05:31:14;97685.59;;;-0.37;100.00
55914;BME280;58179;48.776;9.124;2023-01-26T05:33:40;97683.47;;;-0.33;100.00
55914;BME280;58179;48.776;9.124;2023-01-26T05:36:07;97677.47;;;-0.34;100.00
55914;BME280;58179;48.776;9.124;2023-01-26T05:38:33;97681.84;;;-0.34;100.00
55914;BME280;58179;48.776;9.124;2023-01-26T05:41:01;97679.09;;;-0.33;100.00
55914;BME280;58179;48.776;9.124;2023-01-26T05:43:27;97675.34;;;-0.30;100.00
55914;BME280;58179;48.776;9.124;2023-01-26T05:45:52;97684.28;;;-0.33;100.00
55914;BME280;58179;48.776;9.124;2023-01-26T05:48:18;97677.63;;;-0.35;100.00
55914;BME280;58179;48.776;9.124;2023-01-26T05:50:44;97682.19;;;-0.38;100.00
55914;BME280;58179;48.776;9.124;2023-01-26T05:53:10;97682.84;;;-0.35;100.00
55914;BME280;58179;48.776;9.124;2023-01-26T05:55:36;97686.41;;;-0.36;100.00
55914;BME280;58179;48.776;9.124;2023-01-26T05:58:03;97681.22;;;-0.36;100.00
55914;BME280;58179;48.776;9.124;2023-01-26T06:00:29;97681.41;;;-0.38;100.00
55914;BME280;58179;48.776;9.124;2023-01-26T06:02:55;97683.66;;;-0.35;100.00
55914;BME280;58179;48.776;9.124;2023-01-26T06:05:21;97687.59;;;-0.39;100.00
55914;BME280;58179;48.776;9.124;2023-01-26T06:07:47;97685.81;;;-0.38;100.00
55914;BME280;58179;48.776;9.124;2023-01-26T06:10:13;97686.97;;;-0.41;100.00
55914;BME280;58179;48.776;9.124;2023-01-26T06:12:39;97690.09;;;-0.46;100.00
55914;BME280;58179;48.776;9.124;2023-01-26T06:15:10;97685.66;;;-0.45;100.00
55914;BME280;58179;48.776;9.124;2023-01-26T06:17:37;97690.88;;;-0.45;100.00
55914;BME280;58179;48.776;9.124;2023-01-26T06:20:04;97689.88;;;-0.44;100.00
55914;BME280;58179;48.776;9.124;2023-01-26T06:22:30;97681.91;;;-0.43;100.00
55914;BME280;58179;48.776;9.124;2023-01-26T06:24:56;97688.41;;;-0.38;100.00
55914;BME280;58179;48.776;9.124;2023-01-26T06:27:22;97692.16;;;-0.41;100.00
55914;BME280;58179;48.776;9.124;2023-01-26T06:29:48;97690.09;;;-0.46;100.00
55914;BME280;58179;48.776;9.124;2023-01-26T06:32:15;97687.81;;;-0.49;100.00
55914;BME280;58179;48.776;9.124;2023-01-26T06:34:41;97688.00;;;-0.50;100.00
55914;BME280;58179;48.776;9.124;2023-01-26T06:37:07;97690.59;;;-0.50;100.00
55914;BME280;58179;48.776;9.124;2023-01-26T06:39:33;97685.56;;;-0.52;100.00
55914;BME280;58179;48.776;9.124;2023-01-26T06:41:59;97685.22;;;-0.49;100.00
55914;BME280;58179;48.776;9.124;2023-01-26T06:44:25;97690.25;;;-0.47;100.00
55914;BME280;58179;48.776;9.124;2023-01-26T06:46:51;97692.22;;;-0.49;100.00
55914;BME280;58179;48.776;9.124;2023-01-26T06:49:18;97685.38;;;-0.50;100.00
55914;BME280;58179;48.776;9.124;2023-01-26T06:51:51;97689.78;;;-0.51;100.00
55914;BME280;58179;48.776;9.124;2023-01-26T06:54:19;97686.84;;;-0.48;100.00
55914;BME280;58179;48.776;9.124;2023-01-26T06:56:45;97692.84;;;-0.47;100.00
55914;BME280;58179;48.776;9.124;2023-01-26T06:59:11;97698.22;;;-0.49;100.00
55914;BME280;58179;48.776;9.124;2023-01-26T07:01:40;97691.41;;;-0.50;100.00
55914;BME280;58179;48.776;9.124;2023-01-26T07:04:07;97690.59;;;-0.50;100.00
55914;BME280;58179;48.776;9.124;2023-01-26T07:06:34;97695.78;;;-0.50;100.00
55914;BME280;58179;48.776;9.124;2023-01-26T07:09:00;97692.22;;;-0.49;100.00
55914;BME280;58179;48.776;9.124;2023-01-26T07:11:26;97695.78;;;-0.50;100.00
55914;BME280;58179;48.776;9.124;2023-01-26T07:13:55;97691.56;;;-0.51;100.00
55914;BME280;58179;48.776;9.124;2023-01-26T07:16:20;97697.41;;;-0.49;100.00
55914;BME280;58179;48.776;9.124;2023-01-26T07:18:46;97697.25;;;-0.48;100.00
55914;BME280;58179;48.776;9.124;2023-01-26T07:21:16;97699.31;;;-0.43;100.00
55914;BME280;58179;48.776;9.124;2023-01-26T07:23:46;97700.66;;;-0.47;100.00
55914;BME280;58179;48.776;9.124;2023-01-26T07:26:12;97703.97;;;-0.53;100.00
55914;BME280;58179;48.776;9.124;2023-01-26T07:28:39;97702.34;;;-0.54;100.00
55914;BME280;58179;48.776;9.124;2023-01-26T07:31:07;97707.16;;;-0.51;100.00
55914;BME280;58179;48.776;9.124;2023-01-26T07:33:33;97710.59;;;-0.51;100.00
55914;BME280;58179;48.776;9.124;2023-01-26T07:36:02;97711.75;;;-0.53;100.00
55914;BME280;58179;48.776;9.124;2023-01-26T07:38:30;97704.75;;;-0.53;100.00
55914;BME280;58179;48.776;9.124;2023-01-26T07:40:58;97706.34;;;-0.52;100.00
55914;BME280;58179;48.776;9.124;2023-01-26T07:43:25;97702.94;;;-0.52;100.00
55914;BME280;58179;48.776;9.124;2023-01-26T07:45:52;97706.72;;;-0.55;100.00
55914;BME280;58179;48.776;9.124;2023-01-26T07:48:20;97708.34;;;-0.54;100.00
55914;BME280;58179;48.776;9.124;2023-01-26T07:50:46;97710.75;;;-0.52;100.00
55914;BME280;58179;48.776;9.124;2023-01-26T07:53:13;97703.31;;;-0.55;100.00
55914;BME280;58179;48.776;9.124;2023-01-26T07:55:47;97708.03;;;-0.59;100.00
55914;BME280;58179;48.776;9.124;2023-01-26T07:58:15;97708.84;;;-0.58;100.00
55914;BME280;58179;48.776;9.124;2023-01-26T08:00:43;97703.47;;;-0.57;100.00
55914;BME280;58179;48.776;9.124;2023-01-26T08:03:11;97704.63;;;-0.59;100.00
55914;BME280;58179;48.776;9.124;2023-01-26T08:05:37;97707.41;;;-0.61;100.00
55914;BME280;58179;48.776;9.124;2023-01-26T08:08:04;97702.03;;;-0.59;100.00
55914;BME280;58179;48.776;9.124;2023-01-26T08:10:30;97705.09;;;-0.56;100.00
55914;BME280;58179;48.776;9.124;2023-01-26T08:12:58;97705.53;;;-0.52;100.00
55914;BME280;58179;48.776;9.124;2023-01-26T08:15:26;97709.78;;;-0.51;100.00
55914;BME280;58179;48.776;9.124;2023-01-26T08:17:52;97715.63;;;-0.49;100.00
55914;BME280;58179;48.776;9.124;2023-01-26T08:20:19;97702.44;;;-0.48;100.00
55914;BME280;58179;48.776;9.124;2023-01-26T08:22:45;97709.28;;;-0.47;100.00
55914;BME280;58179;48.776;9.124;2023-01-26T08:25:11;97713.66;;;-0.47;100.00
55914;BME280;58179;48.776;9.124;2023-01-26T08:27:36;97716.09;;;-0.46;100.00
55914;BME280;58179;48.776;9.124;2023-01-26T08:30:03;97705.03;;;-0.48;100.00
55914;BME280;58179;48.776;9.124;2023-01-26T08:32:31;97705.84;;;-0.47;100.00
55914;BME280;58179;48.776;9.124;2023-01-26T08:34:57;97699.19;;;-0.50;100.00
55914;BME280;58179;48.776;9.124;2023-01-26T08:37:23;97699.38;;;-0.51;100.00
55914;BME280;58179;48.776;9.124;2023-01-26T08:39:48;97699.19;;;-0.50;100.00
55914;BME280;58179;48.776;9.124;2023-01-26T08:42:17;97696.59;;;-0.50;100.00
55914;BME280;58179;48.776;9.124;2023-01-26T08:44:45;97693.31;;;-0.44;100.00
55914;BME280;58179;48.776;9.124;2023-01-26T08:47:11;97694.47;;;-0.46;100.00
55914;BME280;58179;48.776;9.124;2023-01-26T08:49:38;97699.31;;;-0.43;100.00
55914;BME280;58179;48.776;9.124;2023-01-26T08:52:04;97694.75;;;-0.41;100.00
55914;BME280;58179;48.776;9.124;2023-01-26T08:54:30;97690.53;;;-0.42;100.00
55914;BME280;58179;48.776;9.124;2023-01-26T08:56:56;97692.31;;;-0.43;100.00
55914;BME280;58179;48.776;9.124;2023-01-26T08:59:22;97699.97;;;-0.41;100.00
55914;BME280;58179;48.776;9.124;2023-01-26T09:01:48;97695.09;;;-0.44;100.00
55914;BME280;58179;48.776;9.124;2023-01-26T09:04:14;97696.72;;;-0.43;100.00
55914;BME280;58179;48.776;9.124;2023-01-26T09:06:41;97696.72;;;-0.43;100.00
55914;BME280;58179;48.776;9.124;2023-01-26T09:09:07;97690.53;;;-0.42;100.00
55914;BME280;58179;48.776;9.124;2023-01-26T09:11:37;97693.31;;;-0.44;100.00
55914;BME280;58179;48.776;9.124;2023-01-26T09:14:03;97690.53;;;-0.42;100.00
55914;BME280;58179;48.776;9.124;2023-01-26T09:16:29;97697.69;;;-0.44;100.00
55914;BME280;58179;48.776;9.124;2023-01-26T09:18:55;97690.53;;;-0.42;100.00
55914;BME280;58179;48.776;9.124;2023-01-26T09:21:21;97693.31;;;-0.44;100.00
55914;BME280;58179;48.776;9.124;2023-01-26T09:23:52;97686.69;;;-0.46;100.00
55914;BME280;58179;48.776;9.124;2023-01-26T09:26:17;97690.88;;;-0.45;100.00
55914;BME280;58179;48.776;9.124;2023-01-26T09:28:50;97697.06;;;-0.46;100.00
55914;BME280;58179;48.776;9.124;2023-01-26T09:31:16;97691.88;;;-0.46;100.00
55914;BME280;58179;48.776;9.124;2023-01-26T09:33:42;97694.28;;;-0.45;100.00
55914;BME280;58179;48.776;9.124;2023-01-26T09:36:10;97695.72;;;-0.42;100.00
55914;BME280;58179;48.776;9.124;2023-01-26T09:38:36;97693.78;;;-0.40;100.00
55914;BME280;58179;48.776;9.124;2023-01-26T09:41:18;97705.59;;;-0.38;100.00
55914;BME280;58179;48.776;9.124;2023-01-26T09:43:50;97707.44;;;-0.38;100.00
55914;BME280;58179;48.776;9.124;2023-01-26T09:46:22;97711.81;;;-0.38;100.00
55914;BME280;58179;48.776;9.124;2023-01-26T09:49:02;97713.41;;;-0.38;100.00
55914;BME280;58179;48.776;9.124;2023-01-26T09:51:35;97706.06;;;-0.34;100.00
55914;BME280;58179;48.776;9.124;2023-01-26T09:54:11;97713.53;;;-0.31;100.00
55914;BME280;58179;48.776;9.124;2023-01-26T09:56:43;97706.56;;;-0.30;100.00
55914;BME280;58179;48.776;9.124;2023-01-26T09:59:20;97707.34;;;-0.30;100.00
55914;BME280;58179;48.776;9.124;2023-01-26T10:01:58;97707.69;;;-0.33;100.00
55914;BME280;58179;48.776;9.124;2023-01-26T10:04:29;97702.38;;;-0.40;100.00
55914;BME280;58179;48.776;9.124;2023-01-26T10:07:08;97699.97;;;-0.41;100.00
55914;BME280;58179;48.776;9.124;2023-01-26T10:09:37;97705.97;;;-0.41;100.00
55914;BME280;58179;48.776;9.124;2023-01-26T10:12:13;97705.44;;;-0.36;100.00
55914;BME280;58179;48.776;9.124;2023-01-26T10:14:45;97701.09;;;-0.44;100.00
55914;BME280;58179;48.776;9.124;2023-01-26T10:17:16;97710.09;;;-0.46;100.00
55914;BME280;58179;48.776;9.124;2023-01-26T10:19:48;97701.28;;;-0.45;100.00
55914;BME280;58179;48.776;9.124;2023-01-26T10:22:21;97698.59;;;-0.37;100.00
55914;BME280;58179;48.776;9.124;2023-01-26T10:24:52;97699.78;;;-0.40;100.00
55914;BME280;58179;48.776;9.124;2023-01-26T10:27:22;97689.72;;;-0.43;100.00
55914;BME280;58179;48.776;9.124;2023-01-26T10:29:48;97688.75;;;-0.42;100.00
55914;BME280;58179;48.776;9.124;2023-01-26T10:32:15;97692.69;;;-0.46;100.00
55914;BME280;58179;48.776;9.124;2023-01-26T10:34:41;97694.00;;;-0.50;100.00
55914;BME280;58179;48.776;9.124;2023-01-26T10:37:20;97693.19;;;-0.50;100.00
55914;BME280;58179;48.776;9.124;2023-01-26T10:39:59;97702.78;;;-0.51;100.00
55914;BME280;58179;48.776;9.124;2023-01-26T10:42:30;97702.28;;;-0.46;100.00
55914;BME280;58179;48.776;9.124;2023-01-26T10:44:57;97700.94;;;-0.42;100.00
55914;BME280;58179;48.776;9.124;2023-01-26T10:47:23;97694.00;;;-0.50;100.00
55914;BME280;58179;48.776;9.124;2023-01-26T10:49:50;97696.38;;;-0.63;100.00
55914;BME280;58179;48.776;9.124;2023-01-26T10:52:18;97695.22;;;-0.60;100.00
55914;BME280;58179;48.776;9.124;2023-01-26T10:54:46;97693.88;;;-0.56;100.00
55914;BME280;58179;48.776;9.124;2023-01-26T10:57:20;97686.56;;;-0.53;100.00
55914;BME280;58179;48.776;9.124;2023-01-26T10:59:53;97681.28;;;-0.45;100.00
55914;BME280;58179;48.776;9.124;2023-01-26T11:02:24;97694.13;;;-0.43;100.00
55914;BME280;58179;48.776;9.124;2023-01-26T11:05:18;97689.88;;;-0.44;100.00
55914;BME280;58179;48.776;9.124;2023-01-26T11:07:47;97688.09;;;-0.44;100.00
55914;BME280;58179;48.776;9.124;2023-01-26T11:10:22;97689.72;;;-0.43;100.00
55914;BME280;58179;48.776;9.124;2023-01-26T11:12:50;97685.88;;;-0.47;100.00
55914;BME280;58179;48.776;9.124;2023-01-26T11:15:20;97682.28;;;-0.46;100.00
55914;BME280;58179;48.776;9.124;2023-01-26T11:17:55;97681.66;;;-0.48;100.00
55914;BME280;58179;48.776;9.124;2023-01-26T11:20:48;97681.81;;;-0.49;100.00
55914;BME280;58179;48.776;9.124;2023-01-26T11:23:32;97672.88;;;-0.47;100.00
55914;BME280;58179;48.776;9.124;2023-01-26T11:29:54;97660.69;;;-0.46;100.00
55914;BME280;58179;48.776;9.124;2023-01-26T11:32:32;97662.41;;;-0.38;100.00
55914;BME280;58179;48.776;9.124;2023-01-26T11:35:14;97666.31;;;-0.43;100.00
55914;BME280;58179;48.776;9.124;2023-01-26T11:37:43;97662.75;;;-0.42;100.00
55914;BME280;58179;48.776;9.124;2023-01-26T11:40:23;97654.78;;;-0.40;100.00
55914;BME280;58179;48.776;9.124;2023-01-26T11:43:38;97663.56;;;-0.41;100.00
55914;BME280;58179;48.776;9.124;2023-01-26T11:46:20;97653.97;;;-0.41;100.00
55914;BME280;58179;48.776;9.124;2023-01-26T11:49:02;97652.50;;;-0.43;100.00
55914;BME280;58179;48.776;9.124;2023-01-26T11:51:52;97648.47;;;-0.46;100.00
55914;BME280;58179;48.776;9.124;2023-01-26T11:54:56;97636.81;;;-0.50;100.00
55914;BME280;58179;48.776;9.124;2023-01-26T11:57:27;97643.44;;;-0.47;100.00
55914;BME280;58179;48.776;9.124;2023-01-26T12:00:04;97640.22;;;-0.49;100.00
55914;BME280;58179;48.776;9.124;2023-01-26T12:02:39;97642.66;;;-0.48;100.00
55914;BME280;58179;48.776;9.124;2023-01-26T12:05:14;97634.38;;;-0.51;100.00
55914;BME280;58179;48.776;9.124;2023-01-26T12:07:50;97633.56;;;-0.52;100.00
55914;BME280;58179;48.776;9.124;2023-01-26T12:10:23;97634.19;;;-0.50;100.00
55914;BME280;58179;48.776;9.124;2023-01-26T12:12:58;97631.25;;;-0.47;100.00
55914;BME280;58179;48.776;9.124;2023-01-26T12:15:32;97629.75;;;-0.41;100.00
55914;BME280;58179;48.776;9.124;2023-01-26T12:18:04;97619.00;;;-0.38;100.00
55914;BME280;58179;48.776;9.124;2023-01-26T12:20:37;97625.63;;;-0.35;100.00
55914;BME280;58179;48.776;9.124;2023-01-26T12:23:11;97621.88;;;-0.33;100.00
55914;BME280;58179;48.776;9.124;2023-01-26T12:25:40;97608.69;;;-0.31;100.00
55914;BME280;58179;48.776;9.124;2023-01-26T12:28:16;97617.31;;;-0.31;100.00
55914;BME280;58179;48.776;9.124;2023-01-26T12:30:52;97618.91;;;-0.30;100.00
55914;BME280;58179;48.776;9.124;2023-01-26T12:33:21;97617.47;;;-0.32;100.00
55914;BME280;58179;48.776;9.124;2023-01-26T12:36:14;97605.63;;;-0.35;100.00
55914;BME280;58179;48.776;9.124;2023-01-26T12:38:53;97604.66;;;-0.34;100.00
55914;BME280;58179;48.776;9.124;2023-01-26T12:41:34;97601.41;;;-0.36;100.00
55914;BME280;58179;48.776;9.124;2023-01-26T12:44:16;97596.22;;;-0.36;100.00
55914;BME280;58179;48.776;9.124;2023-01-26T12:46:51;97600.44;;;-0.35;100.00
55914;BME280;58179;48.776;9.124;2023-01-26T12:49:22;97596.38;;;-0.38;100.00
55914;BME280;58179;48.776;9.124;2023-01-26T12:51:57;97590.41;;;-0.38;100.00
55914;BME280;58179;48.776;9.124;2023-01-26T12:54:33;97587.00;;;-0.38;100.00
55914;BME280;58179;48.776;9.124;2023-01-26T12:57:05;97588.69;;;-0.31;100.00
55914;BME280;58179;48.776;9.124;2023-01-26T12:59:37;97583.38;;;-0.38;100.00
55914;BME280;58179;48.776;9.124;2023-01-26T13:02:19;97586.53;;;-0.42;100.00
55914;BME280;58179;48.776;9.124;2023-01-26T13:04:47;97593.97;;;-0.39;100.00
55914;BME280;58179;48.776;9.124;2023-01-26T13:07:33;97592.19;;;-0.38;100.00
55914;BME280;58179;48.776;9.124;2023-01-26T13:10:26;97590.84;;;-0.34;100.00
55914;BME280;58179;48.776;9.124;2023-01-26T13:12:56;97583.84;;;-0.34;100.00